sensor_id;sensor_type;location;lat;lon;timestamp;P1;durP1;ratioP1;P2;durP2;ratioP2
37715;SDS011;23562;50.540;12.504;2023-08-24T00:00:42;5.90;;;4.65;;
37715;SDS011;23562;50.540;12.504;2023-08-24T00:03:10;9.25;;;5.35;;
37715;SDS011;23562;50.540;12.504;2023-08-24T00:05:36;5.45;;;4.30;;
37715;SDS011;23562;50.540;12.504;2023-08-24T00:08:05;10.02;;;4.72;;
37715;SDS011;23562;50.540;12.504;2023-08-24T00:10:30;6.95;;;4.93;;
37715;SDS011;23562;50.540;12.504;2023-08-24T00:12:56;10.17;;;5.00;;
37715;SDS011;23562;50.540;12.504;2023-08-24T00:15:21;7.83;;;4.57;;
37715;SDS011;23562;50.540;12.504;2023-08-24T00:17:46;8.87;;;5.30;;
37715;SDS011;23562;50.540;12.504;2023-08-24T00:20:11;5.97;;;5.00;;
37715;SDS011;23562;50.540;12.504;2023-08-24T00:22:37;6.73;;;4.90;;
37715;SDS011;23562;50.540;12.504;2023-08-24T00:25:03;7.65;;;5.13;;
37715;SDS011;23562;50.540;12.504;2023-08-24T00:27:28;10.30;;;5.50;;
37715;SDS011;23562;50.540;12.504;2023-08-24T00:29:53;10.10;;;4.90;;
37715;SDS011;23562;50.540;12.504;2023-08-24T00:32:18;7.23;;;5.17;;
37715;SDS011;23562;50.540;12.504;2023-08-24T00:34:44;7.40;;;4.95;;
37715;SDS011;23562;50.540;12.504;2023-08-24T00:37:09;7.30;;;4.90;;
37715;SDS011;23562;50.540;12.504;2023-08-24T00:39:34;5.38;;;4.88;;
37715;SDS011;23562;50.540;12.504;2023-08-24T00:41:59;6.10;;;5.05;;
37715;SDS011;23562;50.540;12.504;2023-08-24T00:44:24;5.97;;;4.83;;
37715;SDS011;23562;50.540;12.504;2023-08-24T00:46:49;7.53;;;5.10;;
37715;SDS011;23562;50.540;12.504;2023-08-24T00:49:15;7.67;;;5.03;;
37715;SDS011;23562;50.540;12.504;2023-08-24T00:51:40;8.13;;;4.60;;
37715;SDS011;23562;50.540;12.504;2023-08-24T00:54:05;10.00;;;4.70;;
37715;SDS011;23562;50.540;12.504;2023-08-24T00:56:30;8.67;;;5.10;;
37715;SDS011;23562;50.540;12.504;2023-08-24T00:58:55;6.07;;;5.07;;
37715;SDS011;23562;50.540;12.504;2023-08-24T01:01:21;10.10;;;4.95;;
37715;SDS011;23562;50.540;12.504;2023-08-24T01:03:46;9.80;;;4.73;;
37715;SDS011;23562;50.540;12.504;2023-08-24T01:06:12;7.72;;;4.50;;
37715;SDS011;23562;50.540;12.504;2023-08-24T01:08:37;6.82;;;4.10;;
37715;SDS011;23562;50.540;12.504;2023-08-24T01:11:06;6.03;;;4.27;;
37715;SDS011;23562;50.540;12.504;2023-08-24T01:13:38;6.78;;;4.32;;
37715;SDS011;23562;50.540;12.504;2023-08-24T01:16:08;6.13;;;3.53;;
37715;SDS011;23562;50.540;12.504;2023-08-24T01:18:34;8.65;;;4.70;;
37715;SDS011;23562;50.540;12.504;2023-08-24T01:21:01;7.47;;;4.57;;
37715;SDS011;23562;50.540;12.504;2023-08-24T01:26:06;8.50;;;4.68;;
37715;SDS011;23562;50.540;12.504;2023-08-24T01:28:31;4.80;;;3.88;;
37715;SDS011;23562;50.540;12.504;2023-08-24T01:30:57;6.97;;;4.33;;
37715;SDS011;23562;50.540;12.504;2023-08-24T01:33:22;7.93;;;4.07;;
37715;SDS011;23562;50.540;12.504;2023-08-24T01:35:47;8.18;;;4.10;;
37715;SDS011;23562;50.540;12.504;2023-08-24T01:38:12;5.93;;;3.70;;
37715;SDS011;23562;50.540;12.504;2023-08-24T01:40:45;7.68;;;3.92;;
37715;SDS011;23562;50.540;12.504;2023-08-24T01:43:13;10.00;;;4.10;;
37715;SDS011;23562;50.540;12.504;2023-08-24T01:45:39;10.40;;;4.15;;
37715;SDS011;23562;50.540;12.504;2023-08-24T01:48:06;5.13;;;4.03;;
37715;SDS011;23562;50.540;12.504;2023-08-24T01:50:31;7.97;;;4.40;;
37715;SDS011;23562;50.540;12.504;2023-08-24T01:52:57;10.50;;;4.10;;
37715;SDS011;23562;50.540;12.504;2023-08-24T01:55:23;6.13;;;4.10;;
37715;SDS011;23562;50.540;12.504;2023-08-24T01:57:48;9.00;;;4.03;;
37715;SDS011;23562;50.540;12.504;2023-08-24T02:00:14;6.43;;;4.10;;
37715;SDS011;23562;50.540;12.504;2023-08-24T02:02:39;6.20;;;3.63;;
37715;SDS011;23562;50.540;12.504;2023-08-24T02:05:05;5.85;;;4.13;;
37715;SDS011;23562;50.540;12.504;2023-08-24T02:07:30;6.93;;;3.97;;
37715;SDS011;23562;50.540;12.504;2023-08-24T02:09:55;10.13;;;4.17;;
37715;SDS011;23562;50.540;12.504;2023-08-24T02:12:20;9.17;;;4.50;;
37715;SDS011;23562;50.540;12.504;2023-08-24T02:14:45;7.65;;;4.53;;
37715;SDS011;23562;50.540;12.504;2023-08-24T02:17:11;7.95;;;4.60;;
37715;SDS011;23562;50.540;12.504;2023-08-24T02:19:36;7.63;;;4.30;;
37715;SDS011;23562;50.540;12.504;2023-08-24T02:22:01;8.60;;;4.60;;
37715;SDS011;23562;50.540;12.504;2023-08-24T02:24:26;5.10;;;4.20;;
37715;SDS011;23562;50.540;12.504;2023-08-24T02:26:51;9.07;;;4.57;;
37715;SDS011;23562;50.540;12.504;2023-08-24T02:29:17;5.00;;;4.50;;
37715;SDS011;23562;50.540;12.504;2023-08-24T02:31:42;7.75;;;4.47;;
37715;SDS011;23562;50.540;12.504;2023-08-24T02:34:07;8.52;;;4.70;;
37715;SDS011;23562;50.540;12.504;2023-08-24T02:36:32;5.10;;;4.22;;
37715;SDS011;23562;50.540;12.504;2023-08-24T02:38:58;6.85;;;4.70;;
37715;SDS011;23562;50.540;12.504;2023-08-24T02:41:23;10.52;;;4.75;;
37715;SDS011;23562;50.540;12.504;2023-08-24T02:43:48;7.95;;;4.50;;
37715;SDS011;23562;50.540;12.504;2023-08-24T02:46:13;6.78;;;4.50;;
37715;SDS011;23562;50.540;12.504;2023-08-24T02:48:39;5.13;;;4.40;;
37715;SDS011;23562;50.540;12.504;2023-08-24T02:51:05;10.65;;;4.80;;
37715;SDS011;23562;50.540;12.504;2023-08-24T02:53:31;9.65;;;5.10;;
37715;SDS011;23562;50.540;12.504;2023-08-24T02:55:56;7.87;;;5.03;;
37715;SDS011;23562;50.540;12.504;2023-08-24T02:58:22;13.80;;;5.70;;
37715;SDS011;23562;50.540;12.504;2023-08-24T03:00:49;7.60;;;5.25;;
37715;SDS011;23562;50.540;12.504;2023-08-24T03:03:19;8.15;;;5.35;;
37715;SDS011;23562;50.540;12.504;2023-08-24T03:06:18;6.32;;;5.07;;
37715;SDS011;23562;50.540;12.504;2023-08-24T03:08:36;6.78;;;5.03;;
37715;SDS011;23562;50.540;12.504;2023-08-24T03:11:02;9.32;;;5.90;;
37715;SDS011;23562;50.540;12.504;2023-08-24T03:13:29;8.15;;;4.82;;
37715;SDS011;23562;50.540;12.504;2023-08-24T03:15:54;6.93;;;4.75;;
37715;SDS011;23562;50.540;12.504;2023-08-24T03:18:20;5.80;;;5.10;;
37715;SDS011;23562;50.540;12.504;2023-08-24T03:20:45;10.90;;;4.80;;
37715;SDS011;23562;50.540;12.504;2023-08-24T03:23:11;6.00;;;5.22;;
37715;SDS011;23562;50.540;12.504;2023-08-24T03:25:37;5.97;;;5.35;;
37715;SDS011;23562;50.540;12.504;2023-08-24T03:28:03;10.70;;;6.03;;
37715;SDS011;23562;50.540;12.504;2023-08-24T03:30:28;8.93;;;5.82;;
37715;SDS011;23562;50.540;12.504;2023-08-24T03:32:53;7.72;;;5.63;;
37715;SDS011;23562;50.540;12.504;2023-08-24T03:35:18;7.30;;;5.33;;
37715;SDS011;23562;50.540;12.504;2023-08-24T03:37:44;8.57;;;5.45;;
37715;SDS011;23562;50.540;12.504;2023-08-24T03:40:11;8.68;;;5.72;;
37715;SDS011;23562;50.540;12.504;2023-08-24T03:42:37;10.55;;;5.95;;
37715;SDS011;23562;50.540;12.504;2023-08-24T03:45:02;6.72;;;5.50;;
37715;SDS011;23562;50.540;12.504;2023-08-24T03:47:28;9.50;;;5.70;;
37715;SDS011;23562;50.540;12.504;2023-08-24T03:49:53;8.65;;;5.90;;
37715;SDS011;23562;50.540;12.504;2023-08-24T03:52:18;14.63;;;5.60;;
37715;SDS011;23562;50.540;12.504;2023-08-24T03:54:44;9.33;;;5.77;;
37715;SDS011;23562;50.540;12.504;2023-08-24T03:57:09;7.17;;;6.03;;
37715;SDS011;23562;50.540;12.504;2023-08-24T03:59:34;6.50;;;5.70;;
37715;SDS011;23562;50.540;12.504;2023-08-24T04:02:00;7.33;;;5.73;;
37715;SDS011;23562;50.540;12.504;2023-08-24T04:04:27;10.43;;;6.07;;
37715;SDS011;23562;50.540;12.504;2023-08-24T04:06:52;9.93;;;6.15;;
37715;SDS011;23562;50.540;12.504;2023-08-24T04:09:18;9.27;;;6.20;;
37715;SDS011;23562;50.540;12.504;2023-08-24T04:11:43;11.90;;;6.63;;
37715;SDS011;23562;50.540;12.504;2023-08-24T04:14:08;8.85;;;6.55;;
37715;SDS011;23562;50.540;12.504;2023-08-24T04:16:33;8.43;;;6.43;;
37715;SDS011;23562;50.540;12.504;2023-08-24T04:18:59;10.53;;;6.63;;
37715;SDS011;23562;50.540;12.504;2023-08-24T04:21:24;9.00;;;6.27;;
37715;SDS011;23562;50.540;12.504;2023-08-24T04:24:03;11.13;;;6.20;;
37715;SDS011;23562;50.540;12.504;2023-08-24T04:26:28;7.32;;;6.60;;
37715;SDS011;23562;50.540;12.504;2023-08-24T04:28:56;6.95;;;5.70;;
37715;SDS011;23562;50.540;12.504;2023-08-24T04:31:22;8.50;;;7.30;;
37715;SDS011;23562;50.540;12.504;2023-08-24T04:33:55;10.55;;;8.05;;
37715;SDS011;23562;50.540;12.504;2023-08-24T04:36:24;7.57;;;6.50;;
37715;SDS011;23562;50.540;12.504;2023-08-24T04:38:53;13.45;;;6.95;;
37715;SDS011;23562;50.540;12.504;2023-08-24T04:41:28;7.88;;;6.40;;
37715;SDS011;23562;50.540;12.504;2023-08-24T04:43:56;11.77;;;7.10;;
37715;SDS011;23562;50.540;12.504;2023-08-24T04:46:21;10.45;;;6.90;;
37715;SDS011;23562;50.540;12.504;2023-08-24T04:48:51;10.52;;;6.55;;
37715;SDS011;23562;50.540;12.504;2023-08-24T04:51:27;7.72;;;6.10;;
37715;SDS011;23562;50.540;12.504;2023-08-24T04:53:55;16.88;;;6.88;;
37715;SDS011;23562;50.540;12.504;2023-08-24T04:56:20;7.85;;;6.32;;
37715;SDS011;23562;50.540;12.504;2023-08-24T04:58:54;9.15;;;6.75;;
37715;SDS011;23562;50.540;12.504;2023-08-24T05:01:27;8.85;;;6.63;;
37715;SDS011;23562;50.540;12.504;2023-08-24T05:03:55;8.07;;;6.35;;
37715;SDS011;23562;50.540;12.504;2023-08-24T05:06:23;9.88;;;6.10;;
37715;SDS011;23562;50.540;12.504;2023-08-24T05:08:51;7.28;;;6.20;;
37715;SDS011;23562;50.540;12.504;2023-08-24T05:11:20;11.55;;;6.13;;
37715;SDS011;23562;50.540;12.504;2023-08-24T05:13:51;9.40;;;6.60;;
37715;SDS011;23562;50.540;12.504;2023-08-24T05:16:22;8.75;;;5.88;;
37715;SDS011;23562;50.540;12.504;2023-08-24T05:18:50;15.90;;;7.00;;
37715;SDS011;23562;50.540;12.504;2023-08-24T05:21:18;9.60;;;6.80;;
37715;SDS011;23562;50.540;12.504;2023-08-24T05:23:55;10.32;;;6.43;;
37715;SDS011;23562;50.540;12.504;2023-08-24T05:26:20;10.02;;;6.70;;
37715;SDS011;23562;50.540;12.504;2023-08-24T05:28:47;10.95;;;6.15;;
37715;SDS011;23562;50.540;12.504;2023-08-24T05:31:15;7.47;;;6.70;;
37715;SDS011;23562;50.540;12.504;2023-08-24T05:33:50;8.80;;;6.93;;
37715;SDS011;23562;50.540;12.504;2023-08-24T05:38:56;10.85;;;6.93;;
37715;SDS011;23562;50.540;12.504;2023-08-24T05:41:29;9.10;;;6.13;;
37715;SDS011;23562;50.540;12.504;2023-08-24T05:43:54;10.77;;;6.43;;
37715;SDS011;23562;50.540;12.504;2023-08-24T05:46:24;10.98;;;6.25;;
37715;SDS011;23562;50.540;12.504;2023-08-24T05:49:02;11.73;;;6.20;;
37715;SDS011;23562;50.540;12.504;2023-08-24T05:51:36;6.72;;;5.60;;
37715;SDS011;23562;50.540;12.504;2023-08-24T05:54:03;11.63;;;6.00;;
37715;SDS011;23562;50.540;12.504;2023-08-24T05:56:29;9.90;;;6.47;;
37715;SDS011;23562;50.540;12.504;2023-08-24T05:58:55;9.15;;;5.57;;
37715;SDS011;23562;50.540;12.504;2023-08-24T06:01:23;8.80;;;5.20;;
37715;SDS011;23562;50.540;12.504;2023-08-24T06:03:49;8.48;;;5.07;;
37715;SDS011;23562;50.540;12.504;2023-08-24T06:06:17;7.25;;;4.70;;
37715;SDS011;23562;50.540;12.504;2023-08-24T06:08:42;7.07;;;4.90;;
37715;SDS011;23562;50.540;12.504;2023-08-24T06:11:16;8.57;;;4.93;;
37715;SDS011;23562;50.540;12.504;2023-08-24T06:13:47;9.15;;;5.05;;
37715;SDS011;23562;50.540;12.504;2023-08-24T06:16:18;6.47;;;4.70;;
37715;SDS011;23562;50.540;12.504;2023-08-24T06:18:49;5.75;;;4.25;;
37715;SDS011;23562;50.540;12.504;2023-08-24T06:21:29;7.53;;;5.18;;
37715;SDS011;23562;50.540;12.504;2023-08-24T06:23:54;7.75;;;4.88;;
37715;SDS011;23562;50.540;12.504;2023-08-24T06:26:19;7.40;;;4.77;;
37715;SDS011;23562;50.540;12.504;2023-08-24T06:28:44;8.43;;;4.50;;
37715;SDS011;23562;50.540;12.504;2023-08-24T06:31:12;9.82;;;5.40;;
37715;SDS011;23562;50.540;12.504;2023-08-24T06:39:40;6.30;;;4.57;;
37715;SDS011;23562;50.540;12.504;2023-08-24T06:42:15;9.60;;;4.63;;
37715;SDS011;23562;50.540;12.504;2023-08-24T06:54:17;8.98;;;4.78;;
37715;SDS011;23562;50.540;12.504;2023-08-24T06:57:03;6.97;;;4.93;;
37715;SDS011;23562;50.540;12.504;2023-08-24T07:27:27;8.30;;;4.20;;
37715;SDS011;23562;50.540;12.504;2023-08-24T07:32:50;6.07;;;3.90;;
37715;SDS011;23562;50.540;12.504;2023-08-24T07:35:18;10.82;;;4.45;;
37715;SDS011;23562;50.540;12.504;2023-08-24T07:37:58;9.05;;;4.55;;
37715;SDS011;23562;50.540;12.504;2023-08-24T07:40:29;5.78;;;3.92;;
37715;SDS011;23562;50.540;12.504;2023-08-24T07:42:57;10.90;;;4.53;;
37715;SDS011;23562;50.540;12.504;2023-08-24T07:45:32;6.28;;;4.25;;
37715;SDS011;23562;50.540;12.504;2023-08-24T07:47:58;5.13;;;4.43;;
37715;SDS011;23562;50.540;12.504;2023-08-24T07:50:38;6.95;;;3.72;;
37715;SDS011;23562;50.540;12.504;2023-08-24T07:53:38;5.28;;;3.72;;
37715;SDS011;23562;50.540;12.504;2023-08-24T07:59:25;8.43;;;3.97;;
37715;SDS011;23562;50.540;12.504;2023-08-24T08:05:18;5.43;;;3.85;;
37715;SDS011;23562;50.540;12.504;2023-08-24T08:11:52;5.95;;;3.97;;
37715;SDS011;23562;50.540;12.504;2023-08-24T08:14:23;7.38;;;4.40;;
37715;SDS011;23562;50.540;12.504;2023-08-24T08:17:29;4.57;;;3.50;;
37715;SDS011;23562;50.540;12.504;2023-08-24T08:20:25;9.05;;;4.68;;
37715;SDS011;23562;50.540;12.504;2023-08-24T08:23:06;8.52;;;5.35;;
37715;SDS011;23562;50.540;12.504;2023-08-24T08:25:36;7.22;;;4.80;;
37715;SDS011;23562;50.540;12.504;2023-08-24T08:28:09;7.13;;;4.13;;
37715;SDS011;23562;50.540;12.504;2023-08-24T08:30:35;8.38;;;3.80;;
37715;SDS011;23562;50.540;12.504;2023-08-24T08:38:54;7.72;;;4.20;;
37715;SDS011;23562;50.540;12.504;2023-08-24T08:41:42;7.40;;;4.00;;
37715;SDS011;23562;50.540;12.504;2023-08-24T08:44:11;6.13;;;3.63;;
37715;SDS011;23562;50.540;12.504;2023-08-24T09:07:43;7.72;;;4.20;;
37715;SDS011;23562;50.540;12.504;2023-08-24T09:10:09;8.20;;;4.40;;
37715;SDS011;23562;50.540;12.504;2023-08-24T09:12:34;8.23;;;4.40;;
37715;SDS011;23562;50.540;12.504;2023-08-24T09:15:02;8.07;;;4.45;;
37715;SDS011;23562;50.540;12.504;2023-08-24T09:17:28;6.47;;;3.95;;
37715;SDS011;23562;50.540;12.504;2023-08-24T09:19:57;5.07;;;4.18;;
37715;SDS011;23562;50.540;12.504;2023-08-24T09:22:23;4.40;;;3.95;;
37715;SDS011;23562;50.540;12.504;2023-08-24T09:24:48;5.40;;;3.72;;
37715;SDS011;23562;50.540;12.504;2023-08-24T09:27:15;9.68;;;3.88;;
37715;SDS011;23562;50.540;12.504;2023-08-24T09:29:41;8.80;;;3.78;;
37715;SDS011;23562;50.540;12.504;2023-08-24T09:32:10;5.50;;;4.13;;
37715;SDS011;23562;50.540;12.504;2023-08-24T09:34:36;6.95;;;4.22;;
37715;SDS011;23562;50.540;12.504;2023-08-24T09:37:01;6.55;;;4.03;;
37715;SDS011;23562;50.540;12.504;2023-08-24T09:39:29;4.70;;;3.80;;
37715;SDS011;23562;50.540;12.504;2023-08-24T09:41:54;5.93;;;3.50;;
37715;SDS011;23562;50.540;12.504;2023-08-24T09:44:19;8.98;;;3.95;;
37715;SDS011;23562;50.540;12.504;2023-08-24T09:46:44;5.97;;;3.60;;
37715;SDS011;23562;50.540;12.504;2023-08-24T09:49:10;7.07;;;3.93;;
37715;SDS011;23562;50.540;12.504;2023-08-24T09:51:37;8.32;;;3.53;;
37715;SDS011;23562;50.540;12.504;2023-08-24T09:54:05;6.53;;;3.85;;
37715;SDS011;23562;50.540;12.504;2023-08-24T09:56:34;5.53;;;4.20;;
37715;SDS011;23562;50.540;12.504;2023-08-24T09:58:59;8.18;;;4.05;;
37715;SDS011;23562;50.540;12.504;2023-08-24T10:01:25;7.88;;;3.72;;
37715;SDS011;23562;50.540;12.504;2023-08-24T10:03:51;5.60;;;3.92;;
37715;SDS011;23562;50.540;12.504;2023-08-24T10:06:17;7.40;;;3.90;;
37715;SDS011;23562;50.540;12.504;2023-08-24T10:08:46;7.28;;;4.00;;
37715;SDS011;23562;50.540;12.504;2023-08-24T10:11:12;7.55;;;3.60;;
37715;SDS011;23562;50.540;12.504;2023-08-24T10:13:50;6.90;;;3.60;;
37715;SDS011;23562;50.540;12.504;2023-08-24T10:16:18;6.32;;;3.97;;
37715;SDS011;23562;50.540;12.504;2023-08-24T10:18:44;8.65;;;4.13;;
37715;SDS011;23562;50.540;12.504;2023-08-24T10:21:10;6.93;;;4.03;;
37715;SDS011;23562;50.540;12.504;2023-08-24T10:23:35;6.18;;;4.00;;
37715;SDS011;23562;50.540;12.504;2023-08-24T10:26:04;6.73;;;3.90;;
37715;SDS011;23562;50.540;12.504;2023-08-24T10:28:30;8.15;;;3.88;;
37715;SDS011;23562;50.540;12.504;2023-08-24T10:30:57;5.28;;;3.90;;
37715;SDS011;23562;50.540;12.504;2023-08-24T10:33:22;5.63;;;3.65;;
37715;SDS011;23562;50.540;12.504;2023-08-24T10:35:48;7.03;;;3.60;;
37715;SDS011;23562;50.540;12.504;2023-08-24T10:38:25;4.07;;;3.22;;
37715;SDS011;23562;50.540;12.504;2023-08-24T10:40:51;6.10;;;4.05;;
37715;SDS011;23562;50.540;12.504;2023-08-24T10:43:17;5.00;;;3.83;;
37715;SDS011;23562;50.540;12.504;2023-08-24T10:48:21;3.90;;;3.13;;
37715;SDS011;23562;50.540;12.504;2023-08-24T10:51:15;4.40;;;3.85;;
37715;SDS011;23562;50.540;12.504;2023-08-24T10:53:38;4.00;;;3.30;;
37715;SDS011;23562;50.540;12.504;2023-08-24T10:56:13;3.78;;;3.38;;
37715;SDS011;23562;50.540;12.504;2023-08-24T10:58:38;4.70;;;3.60;;
37715;SDS011;23562;50.540;12.504;2023-08-24T11:01:03;5.20;;;3.50;;
37715;SDS011;23562;50.540;12.504;2023-08-24T11:03:32;6.40;;;3.60;;
37715;SDS011;23562;50.540;12.504;2023-08-24T11:05:57;6.95;;;3.65;;
37715;SDS011;23562;50.540;12.504;2023-08-24T11:08:27;5.50;;;3.72;;
37715;SDS011;23562;50.540;12.504;2023-08-24T11:11:17;6.93;;;4.28;;
37715;SDS011;23562;50.540;12.504;2023-08-24T11:14:12;7.15;;;3.88;;
37715;SDS011;23562;50.540;12.504;2023-08-24T11:16:42;4.53;;;3.85;;
37715;SDS011;23562;50.540;12.504;2023-08-24T11:19:10;5.15;;;4.10;;
37715;SDS011;23562;50.540;12.504;2023-08-24T11:21:35;6.38;;;4.10;;
37715;SDS011;23562;50.540;12.504;2023-08-24T11:24:00;5.10;;;3.88;;
37715;SDS011;23562;50.540;12.504;2023-08-24T11:26:26;7.60;;;4.05;;
37715;SDS011;23562;50.540;12.504;2023-08-24T11:28:55;5.03;;;3.70;;
37715;SDS011;23562;50.540;12.504;2023-08-24T11:31:22;4.57;;;3.80;;
37715;SDS011;23562;50.540;12.504;2023-08-24T11:33:48;4.85;;;3.95;;
37715;SDS011;23562;50.540;12.504;2023-08-24T11:36:13;7.47;;;3.53;;
37715;SDS011;23562;50.540;12.504;2023-08-24T11:38:38;5.68;;;3.75;;
37715;SDS011;23562;50.540;12.504;2023-08-24T11:41:16;4.97;;;3.83;;
37715;SDS011;23562;50.540;12.504;2023-08-24T11:43:42;5.63;;;4.20;;
37715;SDS011;23562;50.540;12.504;2023-08-24T11:46:07;6.30;;;4.00;;
37715;SDS011;23562;50.540;12.504;2023-08-24T11:48:32;6.80;;;3.83;;
37715;SDS011;23562;50.540;12.504;2023-08-24T11:50:58;5.70;;;4.27;;
37715;SDS011;23562;50.540;12.504;2023-08-24T11:53:23;5.80;;;3.63;;
37715;SDS011;23562;50.540;12.504;2023-08-24T11:55:53;5.00;;;3.97;;
37715;SDS011;23562;50.540;12.504;2023-08-24T11:58:19;7.35;;;3.97;;
37715;SDS011;23562;50.540;12.504;2023-08-24T12:00:45;7.15;;;3.83;;
37715;SDS011;23562;50.540;12.504;2023-08-24T12:03:10;5.18;;;4.00;;
37715;SDS011;23562;50.540;12.504;2023-08-24T12:05:36;7.95;;;4.20;;
37715;SDS011;23562;50.540;12.504;2023-08-24T12:08:01;7.93;;;4.10;;
37715;SDS011;23562;50.540;12.504;2023-08-24T12:10:26;7.50;;;4.30;;
37715;SDS011;23562;50.540;12.504;2023-08-24T12:13:00;7.80;;;4.38;;
37715;SDS011;23562;50.540;12.504;2023-08-24T12:15:27;4.30;;;3.85;;
37715;SDS011;23562;50.540;12.504;2023-08-24T12:17:52;5.35;;;3.70;;
37715;SDS011;23562;50.540;12.504;2023-08-24T12:20:18;5.90;;;3.50;;
37715;SDS011;23562;50.540;12.504;2023-08-24T12:22:44;7.40;;;3.92;;
37715;SDS011;23562;50.540;12.504;2023-08-24T12:25:10;4.47;;;3.67;;
37715;SDS011;23562;50.540;12.504;2023-08-24T12:27:35;5.47;;;4.05;;
37715;SDS011;23562;50.540;12.504;2023-08-24T12:30:01;7.27;;;4.30;;
37715;SDS011;23562;50.540;12.504;2023-08-24T12:32:29;5.85;;;3.45;;
37715;SDS011;23562;50.540;12.504;2023-08-24T12:35:06;6.85;;;4.20;;
37715;SDS011;23562;50.540;12.504;2023-08-24T12:37:31;6.05;;;3.67;;
37715;SDS011;23562;50.540;12.504;2023-08-24T12:39:57;5.13;;;4.10;;
37715;SDS011;23562;50.540;12.504;2023-08-24T12:42:22;8.27;;;4.15;;
37715;SDS011;23562;50.540;12.504;2023-08-24T12:44:47;5.75;;;3.60;;
37715;SDS011;23562;50.540;12.504;2023-08-24T12:47:12;5.63;;;3.83;;
37715;SDS011;23562;50.540;12.504;2023-08-24T12:49:37;6.88;;;3.90;;
37715;SDS011;23562;50.540;12.504;2023-08-24T12:52:03;4.88;;;3.50;;
37715;SDS011;23562;50.540;12.504;2023-08-24T12:54:28;4.27;;;3.80;;
37715;SDS011;23562;50.540;12.504;2023-08-24T12:56:53;4.15;;;3.72;;
37715;SDS011;23562;50.540;12.504;2023-08-24T12:59:18;6.97;;;3.75;;
37715;SDS011;23562;50.540;12.504;2023-08-24T13:01:43;6.82;;;3.53;;
37715;SDS011;23562;50.540;12.504;2023-08-24T13:04:09;4.47;;;3.60;;
37715;SDS011;23562;50.540;12.504;2023-08-24T13:06:34;5.20;;;3.57;;
37715;SDS011;23562;50.540;12.504;2023-08-24T13:08:59;6.87;;;3.83;;
37715;SDS011;23562;50.540;12.504;2023-08-24T13:11:24;7.22;;;3.88;;
37715;SDS011;23562;50.540;12.504;2023-08-24T13:13:49;4.97;;;3.50;;
37715;SDS011;23562;50.540;12.504;2023-08-24T13:16:18;7.07;;;3.70;;
37715;SDS011;23562;50.540;12.504;2023-08-24T13:18:43;5.78;;;3.47;;
37715;SDS011;23562;50.540;12.504;2023-08-24T13:21:08;10.97;;;3.30;;
37715;SDS011;23562;50.540;12.504;2023-08-24T13:23:33;4.93;;;3.50;;
37715;SDS011;23562;50.540;12.504;2023-08-24T13:25:59;7.25;;;3.65;;
37715;SDS011;23562;50.540;12.504;2023-08-24T13:28:24;5.10;;;3.80;;
37715;SDS011;23562;50.540;12.504;2023-08-24T13:30:49;4.93;;;3.67;;
37715;SDS011;23562;50.540;12.504;2023-08-24T13:33:14;5.40;;;3.63;;
37715;SDS011;23562;50.540;12.504;2023-08-24T13:35:40;8.55;;;3.40;;
37715;SDS011;23562;50.540;12.504;2023-08-24T13:38:05;7.78;;;3.90;;
37715;SDS011;23562;50.540;12.504;2023-08-24T13:40:30;8.30;;;3.40;;
37715;SDS011;23562;50.540;12.504;2023-08-24T13:42:55;6.80;;;3.70;;
37715;SDS011;23562;50.540;12.504;2023-08-24T13:45:20;6.57;;;3.47;;
37715;SDS011;23562;50.540;12.504;2023-08-24T13:47:46;4.73;;;3.77;;
37715;SDS011;23562;50.540;12.504;2023-08-24T13:50:11;5.33;;;3.70;;
37715;SDS011;23562;50.540;12.504;2023-08-24T13:52:36;6.40;;;4.30;;
37715;SDS011;23562;50.540;12.504;2023-08-24T13:55:01;6.07;;;3.75;;
37715;SDS011;23562;50.540;12.504;2023-08-24T13:57:28;7.15;;;3.60;;
37715;SDS011;23562;50.540;12.504;2023-08-24T13:59:54;6.28;;;3.53;;
37715;SDS011;23562;50.540;12.504;2023-08-24T14:02:20;4.30;;;2.83;;
37715;SDS011;23562;50.540;12.504;2023-08-24T14:04:45;6.38;;;3.03;;
37715;SDS011;23562;50.540;12.504;2023-08-24T14:07:11;4.22;;;3.00;;
37715;SDS011;23562;50.540;12.504;2023-08-24T14:09:36;5.40;;;3.07;;
37715;SDS011;23562;50.540;12.504;2023-08-24T14:12:01;5.30;;;3.10;;
37715;SDS011;23562;50.540;12.504;2023-08-24T14:14:26;5.53;;;3.53;;
37715;SDS011;23562;50.540;12.504;2023-08-24T14:16:55;5.10;;;3.53;;
37715;SDS011;23562;50.540;12.504;2023-08-24T14:19:20;5.43;;;3.10;;
37715;SDS011;23562;50.540;12.504;2023-08-24T14:21:46;5.73;;;3.43;;
37715;SDS011;23562;50.540;12.504;2023-08-24T14:24:11;5.97;;;3.40;;
37715;SDS011;23562;50.540;12.504;2023-08-24T14:26:36;11.93;;;5.45;;
37715;SDS011;23562;50.540;12.504;2023-08-24T14:29:03;15.02;;;13.70;;
37715;SDS011;23562;50.540;12.504;2023-08-24T14:31:28;16.23;;;11.45;;
37715;SDS011;23562;50.540;12.504;2023-08-24T14:33:56;7.13;;;6.18;;
37715;SDS011;23562;50.540;12.504;2023-08-24T14:36:22;7.03;;;3.77;;
37715;SDS011;23562;50.540;12.504;2023-08-24T14:38:47;7.10;;;3.58;;
37715;SDS011;23562;50.540;12.504;2023-08-24T14:41:13;5.40;;;3.63;;
37715;SDS011;23562;50.540;12.504;2023-08-24T14:43:38;5.63;;;3.40;;
37715;SDS011;23562;50.540;12.504;2023-08-24T14:46:04;10.02;;;3.92;;
37715;SDS011;23562;50.540;12.504;2023-08-24T14:48:29;7.83;;;3.70;;
37715;SDS011;23562;50.540;12.504;2023-08-24T14:50:54;4.13;;;3.47;;
37715;SDS011;23562;50.540;12.504;2023-08-24T14:53:20;10.85;;;4.07;;
37715;SDS011;23562;50.540;12.504;2023-08-24T14:55:45;10.02;;;3.92;;
37715;SDS011;23562;50.540;12.504;2023-08-24T14:58:10;8.90;;;4.18;;
37715;SDS011;23562;50.540;12.504;2023-08-24T15:00:35;7.40;;;3.30;;
37715;SDS011;23562;50.540;12.504;2023-08-24T15:03:00;5.83;;;3.80;;
37715;SDS011;23562;50.540;12.504;2023-08-24T15:05:26;6.30;;;3.33;;
37715;SDS011;23562;50.540;12.504;2023-08-24T15:07:51;6.60;;;3.83;;
37715;SDS011;23562;50.540;12.504;2023-08-24T15:10:16;8.48;;;3.80;;
37715;SDS011;23562;50.540;12.504;2023-08-24T15:12:45;5.82;;;3.50;;
37715;SDS011;23562;50.540;12.504;2023-08-24T15:15:10;8.88;;;3.72;;
37715;SDS011;23562;50.540;12.504;2023-08-24T15:17:35;7.10;;;3.50;;
37715;SDS011;23562;50.540;12.504;2023-08-24T15:20:04;7.70;;;3.92;;
37715;SDS011;23562;50.540;12.504;2023-08-24T15:22:32;8.88;;;3.92;;
37715;SDS011;23562;50.540;12.504;2023-08-24T15:24:58;7.80;;;4.03;;
37715;SDS011;23562;50.540;12.504;2023-08-24T15:27:24;5.57;;;3.88;;
37715;SDS011;23562;50.540;12.504;2023-08-24T15:29:49;8.10;;;4.20;;
37715;SDS011;23562;50.540;12.504;2023-08-24T15:32:16;15.32;;;4.18;;
37715;SDS011;23562;50.540;12.504;2023-08-24T15:34:41;13.10;;;4.23;;
37715;SDS011;23562;50.540;12.504;2023-08-24T15:37:06;7.90;;;3.90;;
37715;SDS011;23562;50.540;12.504;2023-08-24T15:39:38;9.37;;;3.70;;
37715;SDS011;23562;50.540;12.504;2023-08-24T15:42:04;11.35;;;3.70;;
37715;SDS011;23562;50.540;12.504;2023-08-24T15:44:29;7.47;;;3.45;;
37715;SDS011;23562;50.540;12.504;2023-08-24T15:46:54;9.30;;;3.73;;
37715;SDS011;23562;50.540;12.504;2023-08-24T15:49:20;6.90;;;3.67;;
37715;SDS011;23562;50.540;12.504;2023-08-24T15:51:45;12.30;;;4.10;;
37715;SDS011;23562;50.540;12.504;2023-08-24T15:54:10;7.00;;;3.80;;
37715;SDS011;23562;50.540;12.504;2023-08-24T15:56:35;8.40;;;4.10;;
37715;SDS011;23562;50.540;12.504;2023-08-24T15:59:01;6.85;;;3.60;;
37715;SDS011;23562;50.540;12.504;2023-08-24T16:01:26;7.93;;;4.10;;
37715;SDS011;23562;50.540;12.504;2023-08-24T16:03:52;8.40;;;4.40;;
37715;SDS011;23562;50.540;12.504;2023-08-24T16:06:17;9.35;;;3.92;;